createdAt,value
2019-03-19T00:00:01.750Z,99.99
2019-03-19T00:01:01.767Z,99.99
2019-03-19T00:02:01.743Z,99.99
2019-03-19T00:03:01.728Z,99.99
2019-03-19T00:04:01.704Z,99.99
2019-03-19T00:05:04.569Z,99.99
2019-03-19T00:06:01.698Z,99.99
2019-03-19T00:07:01.675Z,99.99
2019-03-19T00:08:01.671Z,99.99
2019-03-19T00:09:01.660Z,99.99
2019-03-19T00:10:01.649Z,99.80
2019-03-19T00:11:02.607Z,98.86
2019-03-19T00:12:01.631Z,98.59
2019-03-19T00:13:01.638Z,98.17
2019-03-19T00:14:02.449Z,97.96
2019-03-19T00:15:01.601Z,98.59
2019-03-19T00:16:03.130Z,97.38
2019-03-19T00:17:01.574Z,96.53
2019-03-19T00:18:01.579Z,96.79
2019-03-19T00:19:01.552Z,97.11
2019-03-19T00:20:01.577Z,96.85
2019-03-19T00:21:01.529Z,97.00
2019-03-19T00:22:01.524Z,97.74
2019-03-19T00:23:01.519Z,97.53
2019-03-19T00:24:01.510Z,97.42
2019-03-19T00:25:02.436Z,98.26
2019-03-19T00:26:01.485Z,98.26
2019-03-19T00:27:01.474Z,98.26
2019-03-19T00:28:01.472Z,99.63
2019-03-19T00:29:01.453Z,99.99
2019-03-19T00:30:01.470Z,99.99
2019-03-19T00:31:01.434Z,99.79
2019-03-19T00:32:01.422Z,98.64
2019-03-19T00:33:01.416Z,98.58
2019-03-19T00:34:01.411Z,98.68
2019-03-19T00:35:01.420Z,98.79
2019-03-19T00:36:01.385Z,99.27
2019-03-19T00:37:01.376Z,99.05
2019-03-19T00:38:01.361Z,99.99
2019-03-19T00:39:01.363Z,99.99
2019-03-19T00:40:01.375Z,99.73
2019-03-19T00:41:01.330Z,99.99
2019-03-19T00:42:01.326Z,99.84
2019-03-19T00:43:01.311Z,99.99
2019-03-19T00:44:01.466Z,99.99
2019-03-19T00:45:01.350Z,99.99
2019-03-19T00:46:03.106Z,99.99
2019-03-19T00:47:01.278Z,99.99
2019-03-19T00:48:01.262Z,99.99
2019-03-19T00:49:01.260Z,99.99
2019-03-19T00:50:01.272Z,99.99
2019-03-19T00:51:01.232Z,99.99
2019-03-19T00:52:01.231Z,99.99
2019-03-19T00:53:01.217Z,99.99
2019-03-19T00:54:01.200Z,99.99
2019-03-19T00:55:01.743Z,99.84
2019-03-19T00:56:01.179Z,99.21
2019-03-19T00:57:01.170Z,98.47
2019-03-19T00:59:09.924Z,98.62
2019-03-19T01:00:09.947Z,98.03
2019-03-19T01:01:09.896Z,99.46
2019-03-19T01:02:09.899Z,99.99
2019-03-19T01:03:09.878Z,99.99
2019-03-19T01:04:13.710Z,99.99
2019-03-19T01:05:09.897Z,99.99
2019-03-19T01:06:09.869Z,99.99
2019-03-19T01:07:09.836Z,99.99
2019-03-19T01:08:09.835Z,99.88
2019-03-19T01:09:10.714Z,99.78
2019-03-19T01:10:09.812Z,99.67
2019-03-19T01:11:09.836Z,99.99
2019-03-19T01:12:09.796Z,99.15
2019-03-19T01:13:09.812Z,98.20
2019-03-19T01:14:09.769Z,97.47
2019-03-19T01:15:09.770Z,97.19
2019-03-19T01:16:09.777Z,97.19
2019-03-19T01:17:09.748Z,97.05
2019-03-19T01:18:09.740Z,96.98
2019-03-19T01:19:09.734Z,97.09
2019-03-19T01:20:09.744Z,96.98
2019-03-19T01:21:09.739Z,97.30
2019-03-19T01:22:09.701Z,97.61
2019-03-19T01:23:09.678Z,97.09
2019-03-19T01:24:09.673Z,97.09
2019-03-19T01:25:09.663Z,96.14
2019-03-19T01:26:09.688Z,96.61
2019-03-19T01:27:09.661Z,96.98
2019-03-19T01:28:09.647Z,97.41
2019-03-19T01:29:09.634Z,98.56
2019-03-19T01:30:09.619Z,99.72
2019-03-19T01:31:09.630Z,99.99
2019-03-19T01:32:09.590Z,99.99
2019-03-19T01:33:09.582Z,99.99
2019-03-19T01:34:09.570Z,99.99
2019-03-19T01:35:09.563Z,99.99
2019-03-19T01:36:09.586Z,99.99
2019-03-19T01:37:09.552Z,99.99
2019-03-19T01:38:09.542Z,99.99
2019-03-19T01:39:09.524Z,99.99
2019-03-19T01:40:09.513Z,99.99
2019-03-19T01:41:09.535Z,99.99
2019-03-19T01:42:09.493Z,99.99
2019-03-19T01:43:09.487Z,99.99
2019-03-19T01:44:09.611Z,99.40
2019-03-19T01:45:09.467Z,98.98
2019-03-19T01:46:09.476Z,98.29
2019-03-19T01:47:09.442Z,98.71
2019-03-19T01:48:09.429Z,97.55
2019-03-19T01:49:09.422Z,96.61
2019-03-19T01:50:09.414Z,95.81
2019-03-19T01:51:09.430Z,95.07
2019-03-19T01:52:09.401Z,94.34
2019-03-19T01:53:09.673Z,95.64
2019-03-19T01:54:09.371Z,97.01
2019-03-19T01:55:09.373Z,97.33
2019-03-19T01:56:09.378Z,97.33
2019-03-19T01:57:09.349Z,96.37
2019-03-19T01:58:09.348Z,96.17
2019-03-19T01:59:09.320Z,95.85
2019-03-19T02:00:09.317Z,96.91
2019-03-19T02:01:09.324Z,97.01
2019-03-19T02:02:09.288Z,97.01
2019-03-19T02:03:09.282Z,97.22
2019-03-19T02:04:09.282Z,97.01
2019-03-19T02:05:09.265Z,95.75
2019-03-19T02:06:09.276Z,95.68
2019-03-19T02:07:09.248Z,95.79
2019-03-19T02:08:09.227Z,96.00
2019-03-19T02:09:09.234Z,97.27
2019-03-19T02:10:09.216Z,98.74
2019-03-19T02:11:09.239Z,98.63
2019-03-19T02:12:09.202Z,99.90
2019-03-19T02:13:09.198Z,99.33
2019-03-19T02:14:09.197Z,99.75
2019-03-19T02:15:09.162Z,98.69
2019-03-19T02:16:09.187Z,98.63
2019-03-19T02:17:09.144Z,97.96
2019-03-19T02:18:09.138Z,97.22
2019-03-19T02:19:09.120Z,97.16
2019-03-19T02:20:09.112Z,97.37
2019-03-19T02:21:09.511Z,95.68
2019-03-19T02:22:09.094Z,97.09
2019-03-19T02:23:09.149Z,96.99
2019-03-19T02:24:09.073Z,97.31
2019-03-19T02:25:09.076Z,97.94
2019-03-19T02:26:16.513Z,99.05
2019-03-19T02:27:10.046Z,98.99
2019-03-19T02:28:09.038Z,99.37
2019-03-19T02:29:10.842Z,99.79
2019-03-19T02:30:09.018Z,99.58
2019-03-19T02:31:09.040Z,99.69
2019-03-19T02:32:08.997Z,99.48
2019-03-19T02:33:08.988Z,98.74
2019-03-19T02:34:09.098Z,98.74
2019-03-19T02:35:08.966Z,98.95
2019-03-19T02:36:09.115Z,99.05
2019-03-19T02:37:08.950Z,98.85
2019-03-19T02:38:08.976Z,98.95
2019-03-19T02:39:08.925Z,98.95
2019-03-19T02:40:08.911Z,98.63
2019-03-19T02:41:08.942Z,98.74
2019-03-19T02:42:08.891Z,98.95
2019-03-19T02:43:09.070Z,98.68
2019-03-19T02:44:08.887Z,97.83
2019-03-19T02:45:08.865Z,96.99
2019-03-19T02:46:08.890Z,97.31
2019-03-19T02:47:08.853Z,97.52
2019-03-19T02:48:08.844Z,97.52
2019-03-19T02:49:08.837Z,96.78
2019-03-19T02:50:08.811Z,97.41
2019-03-19T02:51:08.836Z,98.79
2019-03-19T02:52:08.979Z,99.05
2019-03-19T02:53:08.804Z,99.21
2019-03-19T02:54:08.783Z,98.74
2019-03-19T02:55:08.767Z,98.79
2019-03-19T02:56:08.789Z,97.94
2019-03-19T02:57:08.740Z,98.05
2019-03-19T02:58:08.751Z,97.09
2019-03-19T02:59:09.234Z,96.36
2019-03-19T03:00:08.728Z,96.36
2019-03-19T03:01:08.705Z,95.14
2019-03-19T03:02:08.714Z,95.24
2019-03-19T03:03:08.689Z,95.24
2019-03-19T03:04:08.674Z,96.09
2019-03-19T03:05:08.664Z,96.93
2019-03-19T03:06:08.677Z,97.25
2019-03-19T03:07:08.669Z,97.99
2019-03-19T03:08:08.636Z,99.04
2019-03-19T03:09:08.630Z,99.41
2019-03-19T03:10:08.611Z,99.99
2019-03-19T03:11:08.801Z,99.99
2019-03-19T03:12:09.015Z,99.99
2019-03-19T03:13:08.783Z,99.99
2019-03-19T03:14:08.807Z,99.99
2019-03-19T03:15:08.786Z,99.99
2019-03-19T03:16:08.761Z,99.79
2019-03-19T03:17:08.810Z,99.95
2019-03-19T03:18:09.016Z,99.99
2019-03-19T03:19:08.734Z,99.99
2019-03-19T03:20:08.773Z,99.99
2019-03-19T03:21:08.733Z,99.99
2019-03-19T03:22:08.748Z,99.99
2019-03-19T03:23:08.789Z,99.99
2019-03-19T03:24:08.979Z,99.99
2019-03-19T03:25:08.719Z,99.99
2019-03-19T03:26:08.767Z,99.99
2019-03-19T03:27:08.738Z,99.99
2019-03-19T03:28:08.971Z,99.99
2019-03-19T03:29:08.717Z,99.99
2019-03-19T03:30:08.681Z,99.99
2019-03-19T03:31:08.674Z,99.99
2019-03-19T03:32:08.940Z,99.99
2019-03-19T03:33:08.670Z,99.99
2019-03-19T03:34:08.661Z,99.99
2019-03-19T03:35:08.676Z,99.99
2019-03-19T03:36:09.105Z,99.99
2019-03-19T03:37:08.593Z,99.99
2019-03-19T03:38:09.471Z,99.99
2019-03-19T03:39:08.584Z,99.99
2019-03-19T03:40:08.796Z,99.99
2019-03-19T03:41:08.408Z,99.99
2019-03-19T03:42:08.353Z,99.99
2019-03-19T03:43:08.340Z,99.99
2019-03-19T03:44:08.344Z,99.99
2019-03-19T03:45:08.351Z,99.99
2019-03-19T03:46:08.400Z,99.99
2019-03-19T03:47:08.286Z,99.99
2019-03-19T03:48:08.362Z,99.99
2019-03-19T03:49:08.289Z,99.99
2019-03-19T03:50:08.284Z,99.99
2019-03-19T03:51:08.268Z,99.99
2019-03-19T03:52:08.254Z,99.99
2019-03-19T03:53:08.345Z,99.99
2019-03-19T03:54:08.229Z,99.99
2019-03-19T03:55:08.309Z,99.99
2019-03-19T03:56:08.237Z,99.99
2019-03-19T03:57:08.200Z,99.99
2019-03-19T03:58:08.287Z,99.99
2019-03-19T03:59:08.176Z,99.99
2019-03-19T04:00:08.199Z,99.99
2019-03-19T04:01:08.169Z,99.99
2019-03-19T04:02:08.158Z,99.99
2019-03-19T04:03:08.234Z,99.99
2019-03-19T04:04:08.123Z,99.99
2019-03-19T04:05:08.453Z,99.99
2019-03-19T04:06:08.106Z,99.99
2019-03-19T04:07:08.093Z,99.99
2019-03-19T04:08:08.197Z,99.99
2019-03-19T04:09:09.396Z,99.99
2019-03-19T04:10:08.079Z,99.99
2019-03-19T04:11:08.053Z,99.99
2019-03-19T04:12:09.520Z,99.99
2019-03-19T04:13:08.678Z,99.99
2019-03-19T04:14:08.023Z,99.99
2019-03-19T04:15:08.005Z,99.99
2019-03-19T04:16:08.025Z,99.99
2019-03-19T04:17:07.998Z,99.99
2019-03-19T04:18:08.066Z,99.99
2019-03-19T04:19:07.987Z,99.99
2019-03-19T04:20:07.961Z,99.99
2019-03-19T04:21:07.954Z,99.99
2019-03-19T04:22:07.927Z,99.99
2019-03-19T04:23:08.323Z,99.99
2019-03-19T04:24:07.928Z,99.99
2019-03-19T04:25:07.878Z,99.99
2019-03-19T04:26:07.875Z,99.99
2019-03-19T04:27:15.828Z,99.99
2019-03-19T04:28:08.910Z,99.99
2019-03-19T04:29:07.825Z,99.99
2019-03-19T04:30:07.815Z,99.99
2019-03-19T04:31:07.833Z,99.99
2019-03-19T04:32:07.838Z,99.99
2019-03-19T04:33:07.798Z,99.99
2019-03-19T04:34:09.609Z,99.99
2019-03-19T04:35:07.846Z,99.99
2019-03-19T04:36:07.787Z,99.99
2019-03-19T04:37:07.792Z,99.99
2019-03-19T04:38:07.784Z,99.99
2019-03-19T04:39:07.773Z,99.99
2019-03-19T04:40:07.728Z,99.99
2019-03-19T04:41:07.733Z,99.99
2019-03-19T04:42:07.697Z,99.99
2019-03-19T04:43:07.693Z,99.99
2019-03-19T04:44:07.729Z,99.99
2019-03-19T04:45:07.674Z,99.99
2019-03-19T04:46:07.655Z,99.99
2019-03-19T04:47:07.656Z,99.99
2019-03-19T04:48:07.636Z,99.99
2019-03-19T04:49:07.686Z,99.99
2019-03-19T04:50:07.620Z,99.99
2019-03-19T04:51:07.612Z,99.99
2019-03-19T04:52:07.603Z,99.99
2019-03-19T04:53:07.598Z,99.99
2019-03-19T04:54:07.700Z,99.99
2019-03-19T04:55:07.558Z,99.99
2019-03-19T04:56:07.562Z,99.99
2019-03-19T04:57:07.554Z,99.99
2019-03-19T04:58:07.572Z,99.99
2019-03-19T04:59:07.588Z,99.99
2019-03-19T05:00:08.275Z,99.99
2019-03-19T05:01:07.507Z,99.99
2019-03-19T05:02:07.490Z,99.99
2019-03-19T05:03:07.491Z,99.99
2019-03-19T05:04:07.516Z,99.99
2019-03-19T05:05:07.479Z,99.99
2019-03-19T05:06:07.458Z,99.99
2019-03-19T05:07:07.445Z,99.99
2019-03-19T05:08:07.443Z,99.99
2019-03-19T05:09:07.472Z,99.99
2019-03-19T05:10:07.418Z,99.99
2019-03-19T05:11:07.575Z,99.99
2019-03-19T05:12:09.166Z,99.99
2019-03-19T05:13:07.393Z,99.99
2019-03-19T05:14:07.423Z,99.99
2019-03-19T05:15:07.371Z,99.99
2019-03-19T05:16:07.361Z,99.99
2019-03-19T05:17:07.352Z,99.99
2019-03-19T05:18:07.329Z,99.99
2019-03-19T05:19:07.363Z,99.99
2019-03-19T05:20:07.320Z,99.99
2019-03-19T05:21:07.303Z,99.99
2019-03-19T05:22:07.305Z,99.99
2019-03-19T05:23:07.279Z,99.99
2019-03-19T05:24:07.437Z,99.99
2019-03-19T05:25:07.266Z,99.99
2019-03-19T05:26:07.247Z,99.99
2019-03-19T05:27:07.244Z,99.99
2019-03-19T05:28:07.230Z,99.99
2019-03-19T05:29:07.270Z,99.99
2019-03-19T05:30:07.224Z,99.99
2019-03-19T05:31:07.210Z,99.99
2019-03-19T05:32:07.209Z,99.99
2019-03-19T05:33:07.191Z,99.99
2019-03-19T05:34:07.195Z,99.99
2019-03-19T05:35:07.204Z,99.99
2019-03-19T05:36:07.145Z,99.99
2019-03-19T05:37:07.134Z,99.99
2019-03-19T05:38:07.173Z,99.99
2019-03-19T05:39:07.114Z,99.99
2019-03-19T05:40:07.185Z,99.99
2019-03-19T05:41:07.248Z,99.99
2019-03-19T05:42:07.105Z,99.99
2019-03-19T05:43:07.640Z,99.99
2019-03-19T05:44:07.071Z,99.99
2019-03-19T05:45:07.187Z,99.99
2019-03-19T05:46:07.060Z,99.99
2019-03-19T05:47:07.035Z,99.99
2019-03-19T05:48:07.028Z,99.99
2019-03-19T05:49:07.042Z,99.99
2019-03-19T05:50:07.033Z,99.99
2019-03-19T05:51:07.636Z,99.99
2019-03-19T05:52:06.985Z,99.99
2019-03-19T05:53:07.010Z,99.99
2019-03-19T05:54:06.962Z,99.99
2019-03-19T05:55:06.988Z,99.99
2019-03-19T05:56:06.943Z,99.99
2019-03-19T05:57:07.687Z,99.99
2019-03-19T05:58:06.943Z,99.99
2019-03-19T05:59:06.907Z,99.99
2019-03-19T06:00:06.923Z,99.99
2019-03-19T06:01:06.887Z,99.99
2019-03-19T06:02:06.903Z,99.99
2019-03-19T06:03:06.880Z,99.99
2019-03-19T06:04:06.886Z,99.99
2019-03-19T06:05:06.875Z,99.99
2019-03-19T06:06:06.834Z,99.99
2019-03-19T06:07:06.834Z,99.99
2019-03-19T06:08:07.634Z,99.99
2019-03-19T06:09:07.632Z,99.99
2019-03-19T06:10:06.837Z,99.99
2019-03-19T06:11:06.791Z,99.99
2019-03-19T06:12:06.778Z,99.99
2019-03-19T06:13:06.799Z,99.99
2019-03-19T06:14:06.770Z,99.99
2019-03-19T06:15:06.773Z,99.99
2019-03-19T06:16:06.738Z,99.99
2019-03-19T06:17:06.722Z,99.99
2019-03-19T06:18:06.736Z,99.99
2019-03-19T06:19:06.703Z,99.99
2019-03-19T06:20:06.745Z,99.99
2019-03-19T06:21:06.680Z,99.99
2019-03-19T06:22:06.676Z,99.99
2019-03-19T06:23:06.707Z,99.99
2019-03-19T06:24:06.683Z,99.99
2019-03-19T06:25:06.677Z,99.99
2019-03-19T06:26:06.635Z,99.99
2019-03-19T06:27:06.618Z,99.99
2019-03-19T06:28:06.610Z,99.99
2019-03-19T06:29:07.134Z,99.99
2019-03-19T06:30:06.626Z,99.99
2019-03-19T06:31:06.607Z,99.99
2019-03-19T06:32:06.593Z,99.99
2019-03-19T06:33:06.560Z,99.99
2019-03-19T06:34:06.555Z,99.99
2019-03-19T06:35:06.575Z,99.99
2019-03-19T06:36:06.528Z,99.99
2019-03-19T06:37:06.520Z,99.99
2019-03-19T06:38:06.514Z,99.99
2019-03-19T06:39:06.501Z,99.99
2019-03-19T06:40:06.534Z,99.99
2019-03-19T06:41:06.506Z,99.99
2019-03-19T06:42:06.463Z,99.86
2019-03-19T06:43:06.453Z,99.96
2019-03-19T06:44:06.465Z,99.96
2019-03-19T06:45:06.463Z,99.99
2019-03-19T06:46:06.431Z,99.76
2019-03-19T06:47:06.417Z,99.99
2019-03-19T06:48:06.413Z,99.86
2019-03-19T06:49:06.398Z,99.34
2019-03-19T06:50:06.428Z,99.99
2019-03-19T06:51:06.376Z,99.29
2019-03-19T06:52:06.382Z,99.19
2019-03-19T06:53:06.367Z,99.40
2019-03-19T06:54:06.351Z,99.29
2019-03-19T06:55:06.380Z,98.77
2019-03-19T06:56:06.356Z,98.77
2019-03-19T06:57:06.314Z,98.93
2019-03-19T06:58:10.872Z,99.04
2019-03-19T06:59:07.308Z,98.83
2019-03-19T07:00:06.313Z,98.52
2019-03-19T07:01:06.286Z,98.41
2019-03-19T07:02:06.267Z,98.72
2019-03-19T07:03:06.248Z,98.21
2019-03-19T07:04:06.258Z,98.31
2019-03-19T07:05:06.299Z,98.16
2019-03-19T07:06:06.230Z,98.05
2019-03-19T07:07:06.228Z,98.21
2019-03-19T07:08:06.207Z,98.21
2019-03-19T07:09:06.222Z,97.95
2019-03-19T07:10:06.194Z,97.53
2019-03-19T07:11:06.170Z,97.99
2019-03-19T07:12:06.163Z,98.21
2019-03-19T07:13:06.149Z,98.26
2019-03-19T07:14:06.139Z,98.47
2019-03-19T07:15:06.166Z,98.01
2019-03-19T07:16:06.202Z,97.86
2019-03-19T07:17:06.108Z,98.07
2019-03-19T07:18:06.104Z,97.55
2019-03-19T07:19:06.088Z,97.75
2019-03-19T07:20:07.089Z,96.82
2019-03-19T07:21:06.100Z,96.82
2019-03-19T07:22:06.073Z,96.82
2019-03-19T07:23:06.067Z,96.82
2019-03-19T07:24:06.034Z,96.40
2019-03-19T07:25:06.034Z,96.46
2019-03-19T07:26:06.052Z,96.15
2019-03-19T07:27:06.017Z,96.25
2019-03-19T07:28:06.002Z,96.15
2019-03-19T07:29:06.008Z,96.04
2019-03-19T07:30:06.050Z,96.25
2019-03-19T07:31:06.008Z,96.25
2019-03-19T07:32:05.971Z,96.15
2019-03-19T07:33:07.657Z,96.04
2019-03-19T07:34:05.972Z,96.04
2019-03-19T07:35:05.923Z,95.94
2019-03-19T07:36:06.729Z,95.94
2019-03-19T07:37:05.898Z,96.15
2019-03-19T07:38:05.945Z,95.68
2019-03-19T07:39:05.883Z,95.37
2019-03-19T07:40:05.892Z,95.42
2019-03-19T07:41:05.973Z,96.46
2019-03-19T07:42:05.852Z,96.25
2019-03-19T07:43:05.882Z,95.31
2019-03-19T07:44:05.843Z,95.52
2019-03-19T07:45:05.821Z,96.46
2019-03-19T07:46:05.847Z,95.83
2019-03-19T07:47:05.802Z,95.94
2019-03-19T07:48:06.642Z,96.15
2019-03-19T07:49:05.787Z,96.15
2019-03-19T07:50:05.799Z,96.11
2019-03-19T07:51:05.766Z,96.11
2019-03-19T07:52:06.643Z,95.33
2019-03-19T07:53:05.737Z,94.76
2019-03-19T07:54:07.663Z,94.66
2019-03-19T07:55:07.660Z,93.62
2019-03-19T07:56:05.713Z,93.31
2019-03-19T07:57:05.728Z,93.66
2019-03-19T07:58:05.688Z,93.87
2019-03-19T07:59:05.708Z,94.39
2019-03-19T08:00:05.681Z,94.60
2019-03-19T08:01:05.710Z,94.49
2019-03-19T08:02:05.646Z,94.29
2019-03-19T08:03:15.688Z,94.49
2019-03-19T08:04:06.625Z,94.70
2019-03-19T08:05:05.620Z,94.35
2019-03-19T08:06:05.654Z,93.58
2019-03-19T08:07:05.596Z,92.60
2019-03-19T08:08:05.592Z,91.56
2019-03-19T08:09:07.158Z,92.60
2019-03-19T08:10:05.564Z,92.74
2019-03-19T08:11:05.627Z,92.43
2019-03-19T08:12:05.539Z,92.64
2019-03-19T08:13:06.153Z,93.52
2019-03-19T08:14:05.532Z,93.52
2019-03-19T08:15:05.518Z,93.41
2019-03-19T08:16:05.531Z,93.62
2019-03-19T08:17:05.486Z,93.62
2019-03-19T08:18:05.502Z,93.31
2019-03-19T08:19:05.485Z,93.41
2019-03-19T08:20:05.458Z,93.52
2019-03-19T08:21:05.487Z,94.04
2019-03-19T08:22:05.446Z,94.49
2019-03-19T08:23:06.135Z,94.66
2019-03-19T08:24:05.416Z,93.23
2019-03-19T08:25:05.402Z,91.58
2019-03-19T08:26:05.440Z,89.27
2019-03-19T08:27:05.385Z,87.05
2019-03-19T08:28:05.376Z,85.46
2019-03-19T08:29:05.379Z,85.21
2019-03-19T08:30:05.351Z,84.13
2019-03-19T08:31:05.341Z,83.93
2019-03-19T08:32:05.358Z,84.55
2019-03-19T08:33:05.316Z,83.72
2019-03-19T08:34:05.309Z,84.20
2019-03-19T08:35:05.299Z,85.17
2019-03-19T08:36:09.265Z,84.69
2019-03-19T08:37:05.309Z,85.52
2019-03-19T08:38:05.269Z,87.18
2019-03-19T08:39:05.256Z,86.39
2019-03-19T08:40:05.247Z,87.43
2019-03-19T08:41:05.235Z,87.37
2019-03-19T08:42:05.261Z,87.68
2019-03-19T08:43:05.208Z,87.78
2019-03-19T08:44:05.206Z,89.37
2019-03-19T08:45:05.226Z,88.11
2019-03-19T08:46:05.183Z,87.55
2019-03-19T08:47:05.197Z,85.71
2019-03-19T08:48:05.171Z,86.31
2019-03-19T08:49:05.155Z,87.24
2019-03-19T08:50:05.175Z,87.20
2019-03-19T08:51:05.127Z,86.68
2019-03-19T08:52:05.184Z,85.94
2019-03-19T08:53:05.115Z,83.41
2019-03-19T08:54:05.635Z,82.03
2019-03-19T08:55:05.094Z,82.00
2019-03-19T08:56:05.074Z,82.24
2019-03-19T08:57:05.100Z,80.41
2019-03-19T08:58:05.056Z,80.24
2019-03-19T08:59:06.142Z,80.93
2019-03-19T09:00:05.035Z,80.72
2019-03-19T09:01:05.029Z,80.20
2019-03-19T09:02:05.049Z,82.07
2019-03-19T09:03:05.007Z,83.76
2019-03-19T09:04:04.997Z,82.71
2019-03-19T09:05:04.985Z,80.89
2019-03-19T09:06:04.968Z,79.65
2019-03-19T09:07:04.991Z,81.16
2019-03-19T09:08:04.952Z,80.40
2019-03-19T09:09:04.949Z,79.27
2019-03-19T09:10:04.934Z,77.75
2019-03-19T09:11:05.053Z,78.13
2019-03-19T09:12:04.908Z,77.27
2019-03-19T09:13:04.911Z,76.55
2019-03-19T09:14:04.904Z,77.34
2019-03-19T09:15:04.890Z,76.31
2019-03-19T09:16:04.872Z,77.51
2019-03-19T09:17:04.895Z,74.29
2019-03-19T09:18:04.847Z,75.21
2019-03-19T09:19:04.871Z,74.46
2019-03-19T09:20:04.824Z,75.73
2019-03-19T09:21:04.815Z,74.70
2019-03-19T09:22:04.804Z,76.28
2019-03-19T09:23:04.799Z,76.79
2019-03-19T09:24:04.791Z,74.77
2019-03-19T09:25:04.804Z,75.24
2019-03-19T09:26:04.763Z,75.04
2019-03-19T09:27:04.747Z,75.07
2019-03-19T09:28:04.742Z,74.26
2019-03-19T09:29:04.755Z,74.60
2019-03-19T09:30:04.724Z,75.04
2019-03-19T09:31:04.701Z,73.95
2019-03-19T09:32:04.702Z,73.36
2019-03-19T09:33:04.684Z,72.82
2019-03-19T09:34:04.669Z,72.21
2019-03-19T09:35:04.709Z,72.75
2019-03-19T09:36:04.655Z,72.96
2019-03-19T09:37:04.640Z,72.58
2019-03-19T09:38:04.639Z,72.34
2019-03-19T09:39:04.655Z,71.56
2019-03-19T09:40:04.613Z,71.59
2019-03-19T09:41:04.644Z,71.29
2019-03-19T09:42:04.618Z,69.32
2019-03-19T09:43:04.580Z,71.29
2019-03-19T09:44:04.567Z,68.74
2019-03-19T09:45:04.551Z,69.66
2019-03-19T09:46:04.541Z,69.79
2019-03-19T09:47:04.566Z,69.42
2019-03-19T09:48:04.523Z,70.44
2019-03-19T09:49:04.526Z,67.93
2019-03-19T09:50:04.511Z,67.63
2019-03-19T09:51:04.493Z,63.90
2019-03-19T09:52:04.511Z,65.83
2019-03-19T09:53:04.472Z,64.07
2019-03-19T09:54:05.624Z,65.77
2019-03-19T09:55:04.447Z,62.21
2019-03-19T09:56:04.445Z,61.04
2019-03-19T09:57:04.458Z,61.75
2019-03-19T09:58:04.423Z,63.10
2019-03-19T09:59:04.404Z,60.22
2019-03-19T10:00:04.404Z,62.72
2019-03-19T10:01:04.383Z,63.36
2019-03-19T10:02:04.415Z,65.45
2019-03-19T10:03:04.361Z,67.90
2019-03-19T10:04:04.359Z,64.87
2019-03-19T10:05:04.348Z,66.04
2019-03-19T10:06:13.930Z,65.06
2019-03-19T10:07:06.290Z,63.88
2019-03-19T10:08:04.312Z,62.24
2019-03-19T10:09:04.297Z,64.65
2019-03-19T10:10:04.290Z,65.19
2019-03-19T10:11:04.281Z,64.81
2019-03-19T10:12:04.263Z,66.27
2019-03-19T10:13:04.280Z,66.68
2019-03-19T10:14:04.241Z,66.10
2019-03-19T10:15:04.231Z,66.71
2019-03-19T10:16:04.220Z,64.44
2019-03-19T10:17:04.209Z,64.18
2019-03-19T10:18:04.232Z,61.81
2019-03-19T10:19:04.198Z,60.15
2019-03-19T10:20:04.174Z,60.30
2019-03-19T10:21:04.165Z,59.48
2019-03-19T10:22:04.159Z,60.43
2019-03-19T10:23:04.196Z,60.63
2019-03-19T10:24:04.141Z,61.85
2019-03-19T10:25:04.126Z,62.85
2019-03-19T10:26:04.121Z,63.80
2019-03-19T10:27:04.128Z,62.51
2019-03-19T10:28:04.130Z,64.11
2019-03-19T10:29:04.088Z,64.44
2019-03-19T10:30:04.074Z,63.09
2019-03-19T10:31:04.099Z,63.09
2019-03-19T10:32:04.061Z,62.01
2019-03-19T10:33:04.084Z,58.47
2019-03-19T10:34:04.032Z,64.24
2019-03-19T10:35:04.026Z,58.16
2019-03-19T10:36:04.017Z,58.16
2019-03-19T10:37:03.998Z,58.95
2019-03-19T10:38:04.025Z,57.46
2019-03-19T10:39:03.986Z,58.52
2019-03-19T10:40:03.974Z,59.79
2019-03-19T10:41:03.966Z,60.81
2019-03-19T10:42:03.942Z,57.64
2019-03-19T10:43:03.962Z,56.77
2019-03-19T10:44:03.926Z,55.10
2019-03-19T10:45:03.935Z,56.05
2019-03-19T10:46:03.902Z,54.94
2019-03-19T10:47:03.898Z,55.35
2019-03-19T10:48:03.916Z,54.71
2019-03-19T10:49:03.872Z,54.56
2019-03-19T10:50:03.857Z,54.99
2019-03-19T10:51:03.879Z,58.06
2019-03-19T10:52:03.843Z,58.36
2019-03-19T10:53:03.832Z,57.28
2019-03-19T10:54:03.819Z,58.83
2019-03-19T10:55:03.828Z,59.88
2019-03-19T10:56:03.860Z,62.75
2019-03-19T10:57:03.785Z,60.52
2019-03-19T10:58:10.898Z,60.61
2019-03-19T10:59:04.770Z,60.37
2019-03-19T11:00:03.754Z,60.39
2019-03-19T11:01:03.777Z,61.29
2019-03-19T11:02:03.731Z,62.02
2019-03-19T11:03:03.755Z,63.44
2019-03-19T11:04:03.715Z,62.01
2019-03-19T11:05:03.710Z,62.82
2019-03-19T11:06:03.700Z,62.21
2019-03-19T11:07:03.680Z,61.19
2019-03-19T11:08:03.710Z,63.26
2019-03-19T11:09:03.664Z,63.37
2019-03-19T11:10:03.653Z,61.47
2019-03-19T11:11:03.806Z,63.48
2019-03-19T11:12:03.630Z,63.56
2019-03-19T11:13:04.211Z,65.56
2019-03-19T11:14:03.609Z,60.93
2019-03-19T11:15:03.596Z,61.98
2019-03-19T11:16:03.588Z,63.51
2019-03-19T11:17:03.572Z,60.38
2019-03-19T11:18:03.608Z,59.26
2019-03-19T11:19:03.554Z,62.18
2019-03-19T11:20:03.556Z,61.68
2019-03-19T11:21:03.538Z,61.47
2019-03-19T11:22:03.517Z,60.78
2019-03-19T11:23:03.551Z,62.01
2019-03-19T11:24:03.509Z,62.39
2019-03-19T11:25:03.496Z,59.91
2019-03-19T11:26:03.481Z,61.37
2019-03-19T11:27:03.465Z,63.34
2019-03-19T11:28:03.489Z,63.53
2019-03-19T11:29:03.455Z,65.70
2019-03-19T11:30:03.436Z,64.48
2019-03-19T11:31:03.422Z,65.09
2019-03-19T11:32:03.409Z,64.07
2019-03-19T11:33:03.438Z,63.35
2019-03-19T11:34:03.393Z,63.96
2019-03-19T11:35:03.384Z,64.20
2019-03-19T11:36:03.381Z,64.92
2019-03-19T11:37:03.367Z,63.48
2019-03-19T11:38:03.394Z,62.57
2019-03-19T11:39:03.363Z,63.79
2019-03-19T11:40:03.323Z,65.94
2019-03-19T11:41:03.314Z,64.20
2019-03-19T11:42:03.313Z,63.72
2019-03-19T11:43:03.302Z,65.63
2019-03-19T11:44:03.330Z,64.36
2019-03-19T11:45:03.280Z,66.61
2019-03-19T11:46:03.254Z,65.52
2019-03-19T11:47:03.251Z,66.64
2019-03-19T11:48:03.251Z,66.00
2019-03-19T11:49:03.234Z,63.78
2019-03-19T11:50:03.255Z,64.06
2019-03-19T11:51:03.205Z,63.75
2019-03-19T11:52:03.200Z,64.26
2019-03-19T11:53:03.212Z,62.73
2019-03-19T11:54:03.175Z,62.36
2019-03-19T11:55:03.168Z,56.50
2019-03-19T11:56:03.161Z,53.04
2019-03-19T11:57:03.146Z,50.99
2019-03-19T11:58:03.189Z,49.70
2019-03-19T11:59:03.143Z,51.88
2019-03-19T12:00:11.149Z,51.79
2019-03-19T12:01:04.108Z,52.30
2019-03-19T12:02:03.119Z,54.85
2019-03-19T12:03:12.303Z,55.20
2019-03-19T12:04:04.066Z,57.54
2019-03-19T12:05:03.078Z,51.23
2019-03-19T12:06:03.048Z,52.43
2019-03-19T12:07:03.083Z,53.37
2019-03-19T12:08:03.026Z,55.74
2019-03-19T12:09:03.027Z,55.28
2019-03-19T12:10:03.004Z,55.82
2019-03-19T12:11:02.999Z,55.41
2019-03-19T12:12:02.977Z,55.23
2019-03-19T12:13:03.008Z,54.51
2019-03-19T12:14:02.958Z,53.64
2019-03-19T12:15:02.948Z,53.95
2019-03-19T12:16:02.941Z,55.08
2019-03-19T12:17:02.932Z,53.13
2019-03-19T12:18:02.953Z,53.47
2019-03-19T12:19:02.914Z,54.95
2019-03-19T12:20:02.896Z,52.29
2019-03-19T12:21:02.887Z,53.31
2019-03-19T12:22:02.872Z,55.63
2019-03-19T12:23:02.897Z,52.27
2019-03-19T12:24:02.855Z,51.07
2019-03-19T12:25:02.844Z,52.42
2019-03-19T12:26:02.837Z,53.85
2019-03-19T12:27:02.825Z,53.88
2019-03-19T12:28:02.842Z,53.88
2019-03-19T12:29:02.797Z,55.00
2019-03-19T12:30:02.787Z,55.92
2019-03-19T12:31:02.786Z,56.94
2019-03-19T12:32:02.778Z,56.76
2019-03-19T12:33:02.792Z,58.02
2019-03-19T12:34:02.761Z,57.02
2019-03-19T12:35:02.735Z,58.66
2019-03-19T12:36:02.738Z,59.30
2019-03-19T12:37:02.714Z,59.61
2019-03-19T12:38:02.741Z,57.35
2019-03-19T12:39:02.705Z,58.40
2019-03-19T12:40:02.683Z,60.15
2019-03-19T12:41:02.677Z,61.00
2019-03-19T12:42:02.661Z,62.46
2019-03-19T12:43:02.686Z,64.23
2019-03-19T12:44:02.651Z,63.96
2019-03-19T12:45:02.644Z,60.47
2019-03-19T12:46:02.623Z,63.57
2019-03-19T12:47:02.613Z,64.29
2019-03-19T12:48:02.644Z,63.98
2019-03-19T12:49:02.589Z,64.29
2019-03-19T12:50:02.576Z,64.94
2019-03-19T12:51:02.570Z,65.66
2019-03-19T12:52:02.561Z,64.73
2019-03-19T12:53:02.578Z,64.73